sensor_id;sensor_type;location;lat;lon;timestamp;temperature;humidity
70708;SHT30;58277;47.316;18.908;2022-12-07T00:01:50;1.98;91.12
70708;SHT30;58277;47.316;18.908;2022-12-07T00:04:14;1.92;91.75
70708;SHT30;58277;47.316;18.908;2022-12-07T00:06:42;1.95;92.20
70708;SHT30;58277;47.316;18.908;2022-12-07T00:09:07;1.91;92.27
70708;SHT30;58277;47.316;18.908;2022-12-07T00:11:31;2.03;92.11
70708;SHT30;58277;47.316;18.908;2022-12-07T00:13:56;2.23;91.35
70708;SHT30;58277;47.316;18.908;2022-12-07T00:16:21;2.29;90.81
70708;SHT30;58277;47.316;18.908;2022-12-07T00:18:44;2.27;90.70
70708;SHT30;58277;47.316;18.908;2022-12-07T00:21:20;2.27;90.87
70708;SHT30;58277;47.316;18.908;2022-12-07T00:23:44;2.24;90.66
70708;SHT30;58277;47.316;18.908;2022-12-07T00:26:12;2.23;90.53
70708;SHT30;58277;47.316;18.908;2022-12-07T00:28:36;2.24;90.57
70708;SHT30;58277;47.316;18.908;2022-12-07T00:31:10;2.16;90.81
70708;SHT30;58277;47.316;18.908;2022-12-07T00:33:34;2.27;90.57
70708;SHT30;58277;47.316;18.908;2022-12-07T00:35:58;2.21;90.80
70708;SHT30;58277;47.316;18.908;2022-12-07T00:38:21;2.16;90.87
70708;SHT30;58277;47.316;18.908;2022-12-07T00:40:43;2.26;90.64
70708;SHT30;58277;47.316;18.908;2022-12-07T00:43:06;2.30;90.42
70708;SHT30;58277;47.316;18.908;2022-12-07T00:45:28;2.38;90.17
70708;SHT30;58277;47.316;18.908;2022-12-07T00:47:51;2.38;90.44
70708;SHT30;58277;47.316;18.908;2022-12-07T00:50:14;2.50;90.37
70708;SHT30;58277;47.316;18.908;2022-12-07T00:52:36;2.55;90.23
70708;SHT30;58277;47.316;18.908;2022-12-07T00:54:59;2.52;90.40
70708;SHT30;58277;47.316;18.908;2022-12-07T00:57:22;2.57;90.35
70708;SHT30;58277;47.316;18.908;2022-12-07T00:59:44;2.61;90.23
70708;SHT30;58277;47.316;18.908;2022-12-07T01:02:07;2.66;90.32
70708;SHT30;58277;47.316;18.908;2022-12-07T01:04:29;2.72;90.14
70708;SHT30;58277;47.316;18.908;2022-12-07T01:06:52;2.82;89.95
70708;SHT30;58277;47.316;18.908;2022-12-07T01:09:15;2.78;89.89
70708;SHT30;58277;47.316;18.908;2022-12-07T01:11:37;2.79;90.16
70708;SHT30;58277;47.316;18.908;2022-12-07T01:14:00;2.92;89.60
70708;SHT30;58277;47.316;18.908;2022-12-07T01:16:26;2.84;89.78
70708;SHT30;58277;47.316;18.908;2022-12-07T01:18:50;2.85;89.83
70708;SHT30;58277;47.316;18.908;2022-12-07T01:21:24;2.86;89.71
70708;SHT30;58277;47.316;18.908;2022-12-07T01:23:48;2.88;89.83
70708;SHT30;58277;47.316;18.908;2022-12-07T01:26:13;2.86;89.89
70708;SHT30;58277;47.316;18.908;2022-12-07T01:28:36;2.84;89.97
70708;SHT30;58277;47.316;18.908;2022-12-07T01:31:01;2.81;90.18
70708;SHT30;58277;47.316;18.908;2022-12-07T01:33:27;2.72;90.46
70708;SHT30;58277;47.316;18.908;2022-12-07T01:35:49;2.78;90.43
70708;SHT30;58277;47.316;18.908;2022-12-07T01:38:12;2.77;90.24
70708;SHT30;58277;47.316;18.908;2022-12-07T01:40:34;2.88;89.93
70708;SHT30;58277;47.316;18.908;2022-12-07T01:42:58;2.78;89.34
70708;SHT30;58277;47.316;18.908;2022-12-07T01:45:41;2.74;88.83
70708;SHT30;58277;47.316;18.908;2022-12-07T01:48:05;2.62;89.44
70708;SHT30;58277;47.316;18.908;2022-12-07T01:50:28;2.62;90.04
70708;SHT30;58277;47.316;18.908;2022-12-07T01:52:56;2.71;90.23
70708;SHT30;58277;47.316;18.908;2022-12-07T01:55:21;2.78;90.06
70708;SHT30;58277;47.316;18.908;2022-12-07T01:57:47;2.93;89.75
70708;SHT30;58277;47.316;18.908;2022-12-07T02:00:11;3.03;89.70
70708;SHT30;58277;47.316;18.908;2022-12-07T02:05:25;3.27;89.37
70708;SHT30;58277;47.316;18.908;2022-12-07T02:07:49;3.37;89.31
70708;SHT30;58277;47.316;18.908;2022-12-07T02:10:14;3.54;88.83
70708;SHT30;58277;47.316;18.908;2022-12-07T02:12:36;3.58;88.63
70708;SHT30;58277;47.316;18.908;2022-12-07T02:14:59;3.54;88.61
70708;SHT30;58277;47.316;18.908;2022-12-07T02:17:30;3.63;88.31
70708;SHT30;58277;47.316;18.908;2022-12-07T02:20:04;3.48;88.22
70708;SHT30;58277;47.316;18.908;2022-12-07T02:31:20;2.91;88.33
70708;SHT30;58277;47.316;18.908;2022-12-07T02:34:22;2.89;88.71
70708;SHT30;58277;47.316;18.908;2022-12-07T02:36:53;3.00;88.49
70708;SHT30;58277;47.316;18.908;2022-12-07T02:39:28;2.96;88.66
70708;SHT30;58277;47.316;18.908;2022-12-07T02:41:58;2.95;88.99
70708;SHT30;58277;47.316;18.908;2022-12-07T02:44:24;3.16;88.48
70708;SHT30;58277;47.316;18.908;2022-12-07T02:47:09;3.10;88.40
70708;SHT30;58277;47.316;18.908;2022-12-07T02:49:33;3.17;88.53
70708;SHT30;58277;47.316;18.908;2022-12-07T02:51:58;3.27;88.55
70708;SHT30;58277;47.316;18.908;2022-12-07T02:54:21;3.34;88.24
70708;SHT30;58277;47.316;18.908;2022-12-07T03:10:17;3.02;88.04
70708;SHT30;58277;47.316;18.908;2022-12-07T03:15:34;3.03;88.24
70708;SHT30;58277;47.316;18.908;2022-12-07T03:18:04;3.05;88.42
70708;SHT30;58277;47.316;18.908;2022-12-07T03:20:27;3.15;88.70
70708;SHT30;58277;47.316;18.908;2022-12-07T03:22:53;3.26;88.85
70708;SHT30;58277;47.316;18.908;2022-12-07T03:25:17;3.37;88.82
70708;SHT30;58277;47.316;18.908;2022-12-07T03:30:14;3.47;87.64
70708;SHT30;58277;47.316;18.908;2022-12-07T03:32:49;3.63;87.02
70708;SHT30;58277;47.316;18.908;2022-12-07T03:35:29;3.73;86.51
70708;SHT30;58277;47.316;18.908;2022-12-07T03:40:54;3.68;86.79
70708;SHT30;58277;47.316;18.908;2022-12-07T03:43:21;3.68;86.90
70708;SHT30;58277;47.316;18.908;2022-12-07T03:46:35;3.70;86.63
70708;SHT30;58277;47.316;18.908;2022-12-07T03:51:24;3.58;87.34
70708;SHT30;58277;47.316;18.908;2022-12-07T03:54:00;3.74;87.52
70708;SHT30;58277;47.316;18.908;2022-12-07T03:56:25;3.89;87.27
70708;SHT30;58277;47.316;18.908;2022-12-07T03:58:49;3.68;87.78
70708;SHT30;58277;47.316;18.908;2022-12-07T04:01:12;3.44;88.00
70708;SHT30;58277;47.316;18.908;2022-12-07T04:03:34;3.46;88.25
70708;SHT30;58277;47.316;18.908;2022-12-07T04:05:57;3.53;88.12
70708;SHT30;58277;47.316;18.908;2022-12-07T04:08:21;3.54;88.16
70708;SHT30;58277;47.316;18.908;2022-12-07T04:10:44;3.43;88.41
70708;SHT30;58277;47.316;18.908;2022-12-07T04:13:06;3.28;88.52
70708;SHT30;58277;47.316;18.908;2022-12-07T04:15:29;3.47;88.23
70708;SHT30;58277;47.316;18.908;2022-12-07T04:17:51;3.41;88.40
70708;SHT30;58277;47.316;18.908;2022-12-07T04:20:14;3.55;88.00
70708;SHT30;58277;47.316;18.908;2022-12-07T04:22:37;3.81;87.29
70708;SHT30;58277;47.316;18.908;2022-12-07T04:25:00;3.89;87.00
70708;SHT30;58277;47.316;18.908;2022-12-07T04:27:22;4.02;86.73
70708;SHT30;58277;47.316;18.908;2022-12-07T04:29:45;3.98;86.97
70708;SHT30;58277;47.316;18.908;2022-12-07T04:32:07;3.86;87.55
70708;SHT30;58277;47.316;18.908;2022-12-07T04:34:30;3.98;87.24
70708;SHT30;58277;47.316;18.908;2022-12-07T04:36:53;3.82;87.61
70708;SHT30;58277;47.316;18.908;2022-12-07T04:39:21;3.85;87.81
70708;SHT30;58277;47.316;18.908;2022-12-07T04:41:44;3.88;87.70
70708;SHT30;58277;47.316;18.908;2022-12-07T04:44:08;3.88;87.48
70708;SHT30;58277;47.316;18.908;2022-12-07T04:46:31;3.82;87.41
70708;SHT30;58277;47.316;18.908;2022-12-07T04:48:55;3.85;87.51
70708;SHT30;58277;47.316;18.908;2022-12-07T04:51:22;3.99;87.01
70708;SHT30;58277;47.316;18.908;2022-12-07T04:53:45;3.98;87.19
70708;SHT30;58277;47.316;18.908;2022-12-07T04:56:08;4.05;86.93
70708;SHT30;58277;47.316;18.908;2022-12-07T04:58:31;3.85;87.68
70708;SHT30;58277;47.316;18.908;2022-12-07T05:00:54;3.91;87.42
70708;SHT30;58277;47.316;18.908;2022-12-07T05:03:17;3.85;87.42
70708;SHT30;58277;47.316;18.908;2022-12-07T05:05:41;3.78;87.78
70708;SHT30;58277;47.316;18.908;2022-12-07T05:08:04;3.81;87.62
70708;SHT30;58277;47.316;18.908;2022-12-07T05:10:27;3.89;87.32
70708;SHT30;58277;47.316;18.908;2022-12-07T05:12:49;3.70;88.10
70708;SHT30;58277;47.316;18.908;2022-12-07T05:15:13;3.57;88.54
70708;SHT30;58277;47.316;18.908;2022-12-07T05:17:36;3.63;88.80
70708;SHT30;58277;47.316;18.908;2022-12-07T05:19:59;3.74;88.11
70708;SHT30;58277;47.316;18.908;2022-12-07T05:22:22;3.71;87.83
70708;SHT30;58277;47.316;18.908;2022-12-07T05:24:45;3.81;87.78
70708;SHT30;58277;47.316;18.908;2022-12-07T05:27:07;3.82;87.74
70708;SHT30;58277;47.316;18.908;2022-12-07T05:29:30;3.74;88.12
70708;SHT30;58277;47.316;18.908;2022-12-07T05:31:53;3.73;87.87
70708;SHT30;58277;47.316;18.908;2022-12-07T05:34:15;3.86;87.73
70708;SHT30;58277;47.316;18.908;2022-12-07T05:36:38;3.96;87.50
70708;SHT30;58277;47.316;18.908;2022-12-07T05:39:01;4.01;87.10
70708;SHT30;58277;47.316;18.908;2022-12-07T05:41:24;4.05;86.92
70708;SHT30;58277;47.316;18.908;2022-12-07T05:44:05;4.14;86.92
70708;SHT30;58277;47.316;18.908;2022-12-07T05:46:28;4.16;86.84
70708;SHT30;58277;47.316;18.908;2022-12-07T05:48:51;4.20;86.69
70708;SHT30;58277;47.316;18.908;2022-12-07T05:51:14;4.14;86.73
70708;SHT30;58277;47.316;18.908;2022-12-07T05:53:36;4.13;86.70
70708;SHT30;58277;47.316;18.908;2022-12-07T05:55:59;4.12;86.81
70708;SHT30;58277;47.316;18.908;2022-12-07T05:58:22;4.09;87.06
70708;SHT30;58277;47.316;18.908;2022-12-07T06:01:03;4.20;86.68
70708;SHT30;58277;47.316;18.908;2022-12-07T06:03:26;4.20;86.73
70708;SHT30;58277;47.316;18.908;2022-12-07T06:05:48;4.07;86.69
70708;SHT30;58277;47.316;18.908;2022-12-07T06:08:11;4.16;86.96
70708;SHT30;58277;47.316;18.908;2022-12-07T06:10:34;4.17;86.96
70708;SHT30;58277;47.316;18.908;2022-12-07T06:13:00;4.14;87.08
70708;SHT30;58277;47.316;18.908;2022-12-07T06:15:23;4.12;87.05
70708;SHT30;58277;47.316;18.908;2022-12-07T06:17:48;3.75;87.99
70708;SHT30;58277;47.316;18.908;2022-12-07T06:20:11;3.75;88.27
70708;SHT30;58277;47.316;18.908;2022-12-07T06:22:34;3.89;88.12
70708;SHT30;58277;47.316;18.908;2022-12-07T06:24:56;3.92;87.87
70708;SHT30;58277;47.316;18.908;2022-12-07T06:27:19;4.07;87.35
70708;SHT30;58277;47.316;18.908;2022-12-07T06:29:42;4.17;87.28
70708;SHT30;58277;47.316;18.908;2022-12-07T06:32:05;4.10;87.42
70708;SHT30;58277;47.316;18.908;2022-12-07T06:34:28;4.09;87.70
70708;SHT30;58277;47.316;18.908;2022-12-07T06:36:51;4.23;87.47
70708;SHT30;58277;47.316;18.908;2022-12-07T06:39:16;4.32;87.47
70708;SHT30;58277;47.316;18.908;2022-12-07T06:41:39;4.39;87.72
70708;SHT30;58277;47.316;18.908;2022-12-07T06:44:02;4.37;87.74
70708;SHT30;58277;47.316;18.908;2022-12-07T06:46:25;4.46;87.30
70708;SHT30;58277;47.316;18.908;2022-12-07T06:48:48;4.43;87.35
70708;SHT30;58277;47.316;18.908;2022-12-07T06:51:16;4.44;86.93
70708;SHT30;58277;47.316;18.908;2022-12-07T06:53:39;4.43;86.62
70708;SHT30;58277;47.316;18.908;2022-12-07T06:56:02;4.36;86.99
70708;SHT30;58277;47.316;18.908;2022-12-07T06:58:25;4.36;86.78
70708;SHT30;58277;47.316;18.908;2022-12-07T07:00:48;4.43;86.57
70708;SHT30;58277;47.316;18.908;2022-12-07T07:03:11;4.34;86.70
70708;SHT30;58277;47.316;18.908;2022-12-07T07:05:35;4.28;86.86
70708;SHT30;58277;47.316;18.908;2022-12-07T07:07:58;4.17;87.21
70708;SHT30;58277;47.316;18.908;2022-12-07T07:10:41;4.30;86.68
70708;SHT30;58277;47.316;18.908;2022-12-07T07:13:04;4.23;86.92
70708;SHT30;58277;47.316;18.908;2022-12-07T07:15:28;4.13;87.13
70708;SHT30;58277;47.316;18.908;2022-12-07T07:17:50;4.33;86.76
70708;SHT30;58277;47.316;18.908;2022-12-07T07:20:13;4.39;86.48
70708;SHT30;58277;47.316;18.908;2022-12-07T07:22:36;4.43;86.34
70708;SHT30;58277;47.316;18.908;2022-12-07T07:24:59;4.43;86.34
70708;SHT30;58277;47.316;18.908;2022-12-07T07:27:21;4.44;86.38
70708;SHT30;58277;47.316;18.908;2022-12-07T07:29:44;4.50;86.31
70708;SHT30;58277;47.316;18.908;2022-12-07T07:32:07;4.53;86.11
70708;SHT30;58277;47.316;18.908;2022-12-07T07:34:30;4.46;86.41
70708;SHT30;58277;47.316;18.908;2022-12-07T07:36:52;4.67;85.67
70708;SHT30;58277;47.316;18.908;2022-12-07T07:39:15;4.70;85.62
70708;SHT30;58277;47.316;18.908;2022-12-07T07:41:38;4.71;85.45
70708;SHT30;58277;47.316;18.908;2022-12-07T07:44:07;4.65;85.93
70708;SHT30;58277;47.316;18.908;2022-12-07T07:46:30;4.70;85.88
70708;SHT30;58277;47.316;18.908;2022-12-07T07:48:53;4.82;85.55
70708;SHT30;58277;47.316;18.908;2022-12-07T07:51:16;4.89;85.43
70708;SHT30;58277;47.316;18.908;2022-12-07T07:53:39;4.98;85.19
70708;SHT30;58277;47.316;18.908;2022-12-07T07:56:02;5.15;84.65
70708;SHT30;58277;47.316;18.908;2022-12-07T07:58:26;5.29;84.58
70708;SHT30;58277;47.316;18.908;2022-12-07T08:00:49;5.30;84.51
70708;SHT30;58277;47.316;18.908;2022-12-07T08:03:11;5.29;85.03
70708;SHT30;58277;47.316;18.908;2022-12-07T08:05:36;5.33;84.64
70708;SHT30;58277;47.316;18.908;2022-12-07T08:08:00;5.53;84.19
70708;SHT30;58277;47.316;18.908;2022-12-07T08:10:22;5.67;83.65
70708;SHT30;58277;47.316;18.908;2022-12-07T08:12:45;5.74;83.78
70708;SHT30;58277;47.316;18.908;2022-12-07T08:15:28;5.77;83.80
70708;SHT30;58277;47.316;18.908;2022-12-07T08:17:51;5.70;83.90
70708;SHT30;58277;47.316;18.908;2022-12-07T08:20:14;5.65;84.03
70708;SHT30;58277;47.316;18.908;2022-12-07T08:22:37;5.68;83.66
70708;SHT30;58277;47.316;18.908;2022-12-07T08:24:59;5.79;83.84
70708;SHT30;58277;47.316;18.908;2022-12-07T08:27:22;5.70;83.89
70708;SHT30;58277;47.316;18.908;2022-12-07T08:29:49;5.71;83.97
70708;SHT30;58277;47.316;18.908;2022-12-07T08:32:12;5.84;84.08
70708;SHT30;58277;47.316;18.908;2022-12-07T08:34:34;5.79;83.93
70708;SHT30;58277;47.316;18.908;2022-12-07T08:36:58;5.74;84.18
70708;SHT30;58277;47.316;18.908;2022-12-07T08:39:21;5.87;83.70
70708;SHT30;58277;47.316;18.908;2022-12-07T08:41:53;5.81;83.41
70708;SHT30;58277;47.316;18.908;2022-12-07T08:44:15;5.63;83.98
70708;SHT30;58277;47.316;18.908;2022-12-07T08:46:45;5.79;83.90
70708;SHT30;58277;47.316;18.908;2022-12-07T08:49:32;6.04;83.56
70708;SHT30;58277;47.316;18.908;2022-12-07T08:51:56;6.26;82.82
70708;SHT30;58277;47.316;18.908;2022-12-07T08:54:19;6.42;82.26
70708;SHT30;58277;47.316;18.908;2022-12-07T08:56:43;6.66;81.17
70708;SHT30;58277;47.316;18.908;2022-12-07T08:59:07;6.46;81.85
70708;SHT30;58277;47.316;18.908;2022-12-07T09:01:30;6.40;82.54
70708;SHT30;58277;47.316;18.908;2022-12-07T09:03:53;6.60;81.75
70708;SHT30;58277;47.316;18.908;2022-12-07T09:06:15;6.87;81.00
70708;SHT30;58277;47.316;18.908;2022-12-07T09:08:42;6.70;81.23
70708;SHT30;58277;47.316;18.908;2022-12-07T09:11:08;6.73;81.50
70708;SHT30;58277;47.316;18.908;2022-12-07T09:13:30;6.91;80.60
70708;SHT30;58277;47.316;18.908;2022-12-07T09:15:53;6.98;80.36
70708;SHT30;58277;47.316;18.908;2022-12-07T09:18:16;6.98;80.49
70708;SHT30;58277;47.316;18.908;2022-12-07T09:20:39;7.08;80.13
70708;SHT30;58277;47.316;18.908;2022-12-07T09:23:02;7.18;80.32
70708;SHT30;58277;47.316;18.908;2022-12-07T09:25:24;7.28;79.76
70708;SHT30;58277;47.316;18.908;2022-12-07T09:27:47;7.25;80.05
70708;SHT30;58277;47.316;18.908;2022-12-07T09:30:10;7.37;79.17
70708;SHT30;58277;47.316;18.908;2022-12-07T09:32:33;7.47;79.42
70708;SHT30;58277;47.316;18.908;2022-12-07T09:34:56;7.67;78.64
70708;SHT30;58277;47.316;18.908;2022-12-07T09:37:18;7.66;78.69
70708;SHT30;58277;47.316;18.908;2022-12-07T09:39:42;7.59;79.22
70708;SHT30;58277;47.316;18.908;2022-12-07T09:44:47;7.40;79.10
70708;SHT30;58277;47.316;18.908;2022-12-07T09:47:10;7.49;79.10
70708;SHT30;58277;47.316;18.908;2022-12-07T09:49:33;7.60;78.56
70708;SHT30;58277;47.316;18.908;2022-12-07T09:54:35;7.93;77.87
70708;SHT30;58277;47.316;18.908;2022-12-07T09:56:59;7.90;78.17
70708;SHT30;58277;47.316;18.908;2022-12-07T09:59:22;7.91;77.79
70708;SHT30;58277;47.316;18.908;2022-12-07T10:01:48;7.94;77.25
70708;SHT30;58277;47.316;18.908;2022-12-07T10:04:16;7.94;77.78
70708;SHT30;58277;47.316;18.908;2022-12-07T10:06:39;8.24;77.69
70708;SHT30;58277;47.316;18.908;2022-12-07T10:09:09;8.16;77.79
70708;SHT30;58277;47.316;18.908;2022-12-07T10:11:32;8.41;77.01
70708;SHT30;58277;47.316;18.908;2022-12-07T10:13:55;8.33;77.04
70708;SHT30;58277;47.316;18.908;2022-12-07T10:16:39;8.11;76.94
70708;SHT30;58277;47.316;18.908;2022-12-07T10:19:28;8.11;77.33
70708;SHT30;58277;47.316;18.908;2022-12-07T10:24:24;8.16;78.00
70708;SHT30;58277;47.316;18.908;2022-12-07T10:34:32;7.73;78.40
70708;SHT30;58277;47.316;18.908;2022-12-07T10:39:51;8.28;76.94
70708;SHT30;58277;47.316;18.908;2022-12-07T10:42:24;8.16;77.27
70708;SHT30;58277;47.316;18.908;2022-12-07T10:45:17;8.29;76.68
70708;SHT30;58277;47.316;18.908;2022-12-07T10:58:39;8.36;76.02
70708;SHT30;58277;47.316;18.908;2022-12-07T11:10:02;8.48;75.76
70708;SHT30;58277;47.316;18.908;2022-12-07T11:15:04;8.62;75.01
70708;SHT30;58277;47.316;18.908;2022-12-07T11:18:01;8.57;74.19
70708;SHT30;58277;47.316;18.908;2022-12-07T11:21:15;8.52;74.37
70708;SHT30;58277;47.316;18.908;2022-12-07T11:26:18;8.25;73.85
70708;SHT30;58277;47.316;18.908;2022-12-07T11:32:02;8.26;74.27
70708;SHT30;58277;47.316;18.908;2022-12-07T11:36:52;8.18;74.73
70708;SHT30;58277;47.316;18.908;2022-12-07T11:39:30;8.46;74.19
70708;SHT30;58277;47.316;18.908;2022-12-07T11:42:14;8.39;73.79
70708;SHT30;58277;47.316;18.908;2022-12-07T11:50:01;8.50;74.42
70708;SHT30;58277;47.316;18.908;2022-12-07T11:52:53;8.41;74.50
70708;SHT30;58277;47.316;18.908;2022-12-07T11:55:44;8.09;75.39
70708;SHT30;58277;47.316;18.908;2022-12-07T12:01:40;8.16;74.77
70708;SHT30;58277;47.316;18.908;2022-12-07T12:06:33;8.04;75.57
70708;SHT30;58277;47.316;18.908;2022-12-07T12:20:06;7.97;76.35
70708;SHT30;58277;47.316;18.908;2022-12-07T12:22:43;7.91;75.91
70708;SHT30;58277;47.316;18.908;2022-12-07T12:25:19;8.06;75.25
70708;SHT30;58277;47.316;18.908;2022-12-07T12:27:46;8.11;74.88
70708;SHT30;58277;47.316;18.908;2022-12-07T12:33:25;7.99;74.63
70708;SHT30;58277;47.316;18.908;2022-12-07T12:46:54;7.47;75.59
70708;SHT30;58277;47.316;18.908;2022-12-07T12:51:44;7.28;77.23
70708;SHT30;58277;47.316;18.908;2022-12-07T12:54:33;7.37;77.49
70708;SHT30;58277;47.316;18.908;2022-12-07T12:57:15;7.53;77.19
70708;SHT30;58277;47.316;18.908;2022-12-07T13:02:23;7.90;77.17
70708;SHT30;58277;47.316;18.908;2022-12-07T13:04:51;8.06;76.67
70708;SHT30;58277;47.316;18.908;2022-12-07T13:18:04;8.33;75.10
70708;SHT30;58277;47.316;18.908;2022-12-07T13:23:09;8.14;75.37
70708;SHT30;58277;47.316;18.908;2022-12-07T13:25:37;8.05;75.38
70708;SHT30;58277;47.316;18.908;2022-12-07T13:28:15;8.14;74.75
70708;SHT30;58277;47.316;18.908;2022-12-07T13:30:47;8.21;73.81
70708;SHT30;58277;47.316;18.908;2022-12-07T13:33:13;8.21;73.63
70708;SHT30;58277;47.316;18.908;2022-12-07T13:35:37;8.08;73.25
70708;SHT30;58277;47.316;18.908;2022-12-07T13:38:47;8.16;72.88
70708;SHT30;58277;47.316;18.908;2022-12-07T13:41:15;7.91;72.63
70708;SHT30;58277;47.316;18.908;2022-12-07T13:43:48;7.81;72.89
70708;SHT30;58277;47.316;18.908;2022-12-07T13:46:11;7.95;72.70
70708;SHT30;58277;47.316;18.908;2022-12-07T13:48:48;7.97;72.52
70708;SHT30;58277;47.316;18.908;2022-12-07T13:51:20;7.85;72.68
70708;SHT30;58277;47.316;18.908;2022-12-07T13:54:10;7.81;72.89
70708;SHT30;58277;47.316;18.908;2022-12-07T13:56:34;7.67;72.79
70708;SHT30;58277;47.316;18.908;2022-12-07T13:59:16;7.60;71.64
70708;SHT30;58277;47.316;18.908;2022-12-07T14:01:39;7.39;70.51
70708;SHT30;58277;47.316;18.908;2022-12-07T14:06:51;7.16;68.73
70708;SHT30;58277;47.316;18.908;2022-12-07T14:09:22;7.35;67.82
70708;SHT30;58277;47.316;18.908;2022-12-07T14:11:46;7.26;67.61
70708;SHT30;58277;47.316;18.908;2022-12-07T14:14:22;7.26;67.64
70708;SHT30;58277;47.316;18.908;2022-12-07T14:17:02;7.22;67.85
70708;SHT30;58277;47.316;18.908;2022-12-07T14:19:47;7.37;67.80
70708;SHT30;58277;47.316;18.908;2022-12-07T14:22:30;7.47;67.70
70708;SHT30;58277;47.316;18.908;2022-12-07T14:25:20;7.57;67.64
70708;SHT30;58277;47.316;18.908;2022-12-07T14:27:57;7.62;67.92
70708;SHT30;58277;47.316;18.908;2022-12-07T14:30:23;7.66;68.11
70708;SHT30;58277;47.316;18.908;2022-12-07T14:32:48;7.63;68.16
70708;SHT30;58277;47.316;18.908;2022-12-07T14:35:16;7.49;68.73
70708;SHT30;58277;47.316;18.908;2022-12-07T14:37:40;7.60;68.71
70708;SHT30;58277;47.316;18.908;2022-12-07T14:40:04;7.57;68.63
70708;SHT30;58277;47.316;18.908;2022-12-07T14:42:28;7.49;68.82
70708;SHT30;58277;47.316;18.908;2022-12-07T14:44:52;7.36;68.87
70708;SHT30;58277;47.316;18.908;2022-12-07T14:47:14;7.30;69.23
70708;SHT30;58277;47.316;18.908;2022-12-07T14:49:57;7.09;69.55
70708;SHT30;58277;47.316;18.908;2022-12-07T14:52:29;7.08;69.99
70708;SHT30;58277;47.316;18.908;2022-12-07T14:55:16;6.98;70.29
70708;SHT30;58277;47.316;18.908;2022-12-07T14:57:40;7.07;70.13
70708;SHT30;58277;47.316;18.908;2022-12-07T15:00:03;7.04;69.82
70708;SHT30;58277;47.316;18.908;2022-12-07T15:02:26;7.05;70.47
70708;SHT30;58277;47.316;18.908;2022-12-07T15:04:49;6.91;70.02
70708;SHT30;58277;47.316;18.908;2022-12-07T15:07:18;6.91;70.59
70708;SHT30;58277;47.316;18.908;2022-12-07T15:09:42;6.83;70.63
70708;SHT30;58277;47.316;18.908;2022-12-07T15:12:05;6.88;70.81
70708;SHT30;58277;47.316;18.908;2022-12-07T15:14:27;6.95;70.40
70708;SHT30;58277;47.316;18.908;2022-12-07T15:16:50;6.94;70.69
70708;SHT30;58277;47.316;18.908;2022-12-07T15:19:30;6.97;70.56
70708;SHT30;58277;47.316;18.908;2022-12-07T15:21:53;6.87;71.27
70708;SHT30;58277;47.316;18.908;2022-12-07T15:24:16;6.90;71.23
70708;SHT30;58277;47.316;18.908;2022-12-07T15:26:40;6.90;71.22
70708;SHT30;58277;47.316;18.908;2022-12-07T15:29:03;6.94;71.22
70708;SHT30;58277;47.316;18.908;2022-12-07T15:31:26;6.90;71.48
70708;SHT30;58277;47.316;18.908;2022-12-07T15:34:08;6.81;72.03
70708;SHT30;58277;47.316;18.908;2022-12-07T15:36:33;6.77;72.34
70708;SHT30;58277;47.316;18.908;2022-12-07T15:38:56;6.69;72.60
70708;SHT30;58277;47.316;18.908;2022-12-07T15:41:35;6.54;73.05
70708;SHT30;58277;47.316;18.908;2022-12-07T15:43:58;6.39;73.64
70708;SHT30;58277;47.316;18.908;2022-12-07T15:46:40;6.40;73.19
70708;SHT30;58277;47.316;18.908;2022-12-07T15:49:07;6.30;73.87
70708;SHT30;58277;47.316;18.908;2022-12-07T15:51:31;6.13;74.27
70708;SHT30;58277;47.316;18.908;2022-12-07T15:53:54;6.18;74.17
70708;SHT30;58277;47.316;18.908;2022-12-07T15:56:16;6.15;74.42
70708;SHT30;58277;47.316;18.908;2022-12-07T15:58:39;6.21;74.28
70708;SHT30;58277;47.316;18.908;2022-12-07T16:01:10;6.02;74.62
70708;SHT30;58277;47.316;18.908;2022-12-07T16:03:33;5.98;74.79
70708;SHT30;58277;47.316;18.908;2022-12-07T16:05:58;5.71;75.76
70708;SHT30;58277;47.316;18.908;2022-12-07T16:08:21;5.56;76.22
70708;SHT30;58277;47.316;18.908;2022-12-07T16:10:43;5.37;76.74
70708;SHT30;58277;47.316;18.908;2022-12-07T16:13:06;5.22;77.31
70708;SHT30;58277;47.316;18.908;2022-12-07T16:15:29;5.16;77.65
70708;SHT30;58277;47.316;18.908;2022-12-07T16:17:51;5.06;78.01
70708;SHT30;58277;47.316;18.908;2022-12-07T16:20:14;5.06;77.79
70708;SHT30;58277;47.316;18.908;2022-12-07T16:22:37;5.02;77.93
70708;SHT30;58277;47.316;18.908;2022-12-07T16:24:59;4.88;78.07
70708;SHT30;58277;47.316;18.908;2022-12-07T16:27:22;4.64;78.66
70708;SHT30;58277;47.316;18.908;2022-12-07T16:29:46;4.58;78.94
70708;SHT30;58277;47.316;18.908;2022-12-07T16:32:09;4.47;79.12
70708;SHT30;58277;47.316;18.908;2022-12-07T16:34:31;4.56;78.91
70708;SHT30;58277;47.316;18.908;2022-12-07T16:36:54;4.65;78.59
70708;SHT30;58277;47.316;18.908;2022-12-07T16:39:26;4.53;78.88
70708;SHT30;58277;47.316;18.908;2022-12-07T16:41:49;4.39;78.97
70708;SHT30;58277;47.316;18.908;2022-12-07T16:44:12;4.50;78.50
70708;SHT30;58277;47.316;18.908;2022-12-07T16:46:36;4.30;78.84
70708;SHT30;58277;47.316;18.908;2022-12-07T16:48:59;4.37;79.15
70708;SHT30;58277;47.316;18.908;2022-12-07T16:51:22;4.16;79.45
70708;SHT30;58277;47.316;18.908;2022-12-07T16:53:45;4.28;79.20
70708;SHT30;58277;47.316;18.908;2022-12-07T16:56:12;4.26;78.77
70708;SHT30;58277;47.316;18.908;2022-12-07T16:58:36;4.01;79.82
70708;SHT30;58277;47.316;18.908;2022-12-07T17:00:59;3.82;80.29
70708;SHT30;58277;47.316;18.908;2022-12-07T17:03:22;3.86;80.08
70708;SHT30;58277;47.316;18.908;2022-12-07T17:05:46;3.81;80.45
70708;SHT30;58277;47.316;18.908;2022-12-07T17:08:10;3.70;80.56
70708;SHT30;58277;47.316;18.908;2022-12-07T17:10:35;3.78;80.55
70708;SHT30;58277;47.316;18.908;2022-12-07T17:12:58;3.86;80.05
70708;SHT30;58277;47.316;18.908;2022-12-07T17:15:20;3.93;79.82
70708;SHT30;58277;47.316;18.908;2022-12-07T17:17:55;3.92;79.76
70708;SHT30;58277;47.316;18.908;2022-12-07T17:20:18;3.95;79.23
70708;SHT30;58277;47.316;18.908;2022-12-07T17:22:41;3.86;79.28
70708;SHT30;58277;47.316;18.908;2022-12-07T17:25:05;3.79;79.55
70708;SHT30;58277;47.316;18.908;2022-12-07T17:27:28;3.82;79.43
70708;SHT30;58277;47.316;18.908;2022-12-07T17:29:51;3.78;79.46
70708;SHT30;58277;47.316;18.908;2022-12-07T17:32:14;3.71;79.83
70708;SHT30;58277;47.316;18.908;2022-12-07T17:34:37;3.55;80.81
70708;SHT30;58277;47.316;18.908;2022-12-07T17:36:59;3.57;80.41
70708;SHT30;58277;47.316;18.908;2022-12-07T17:39:22;3.51;80.73
70708;SHT30;58277;47.316;18.908;2022-12-07T17:41:45;3.46;81.25
70708;SHT30;58277;47.316;18.908;2022-12-07T17:44:27;3.43;81.06
70708;SHT30;58277;47.316;18.908;2022-12-07T17:46:52;3.33;81.30
70708;SHT30;58277;47.316;18.908;2022-12-07T17:49:19;3.31;81.07